Time;durP1;ratioP1;P1;durP2;ratioP2;P2;SDS_P1;SDS_P2;PMS_P1;PMS_P2;Temp;Humidity;BMP_temperature;BMP_pressure;BME280_temperature;BME280_humidity;BME280_pressure;Samples;Min_cycle;Max_cycle;Signal;HPM_P1;HPM_P2
2023/05/07 00:00:18;;;;;;;16.70;10.20;;;11.50;99.90;;;;;;7400228;19;19919;-64
2023/05/07 00:02:47;;;;;;;17.50;10.90;;;11.50;99.90;;;;;;7400566;19;19927;-64
2023/05/07 00:05:16;;;;;;;16.15;10.75;;;11.60;99.90;;;;;;7400750;19;19919;-64
2023/05/07 00:07:45;;;;;;;19.00;11.52;;;11.60;99.90;;;;;;7400570;19;19923;-64
2023/05/07 00:10:14;;;;;;;17.10;10.05;;;11.40;99.90;;;;;;7400236;19;20354;-64
2023/05/07 00:12:43;;;;;;;19.08;10.38;;;11.40;99.90;;;;;;7399308;19;19918;-64
2023/05/07 00:15:15;;;;;;;21.45;11.65;;;11.50;99.90;;;;;;7400061;19;19918;-64
2023/05/07 00:17:44;;;;;;;23.65;11.77;;;11.50;99.90;;;;;;7399083;19;19919;-64
2023/05/07 00:20:14;;;;;;;20.40;11.52;;;11.50;99.90;;;;;;7399956;19;19914;-64
2023/05/07 00:22:43;;;;;;;19.67;11.98;;;11.50;99.90;;;;;;7399784;19;20351;-63
2023/05/07 00:25:12;;;;;;;23.23;12.88;;;11.50;99.90;;;;;;7400352;19;19915;-64
2023/05/07 00:27:44;;;;;;;21.20;12.52;;;11.30;99.90;;;;;;7397491;19;19950;-63
2023/05/07 00:30:16;;;;;;;23.13;12.57;;;11.60;99.90;;;;;;7399856;19;19926;-64
2023/05/07 00:32:45;;;;;;;20.98;12.38;;;11.40;99.90;;;;;;7398895;19;19911;-64
2023/05/07 00:35:14;;;;;;;24.02;13.55;;;11.50;99.90;;;;;;7399215;19;19926;-64
2023/05/07 00:37:43;;;;;;;23.02;13.45;;;11.50;99.90;;;;;;7398150;19;20314;-64
2023/05/07 00:40:13;;;;;;;22.70;12.98;;;11.50;99.90;;;;;;7399121;19;19918;-64
2023/05/07 00:42:46;;;;;;;23.88;14.35;;;11.40;99.90;;;;;;7398822;19;19939;-64
2023/05/07 00:45:19;;;;;;;26.70;14.80;;;11.50;99.90;;;;;;7403152;19;19933;-63
2023/05/07 00:47:48;;;;;;;24.65;15.20;;;11.50;99.90;;;;;;7399076;19;19919;-64
2023/05/07 00:50:18;;;;;;;27.63;15.68;;;11.60;99.90;;;;;;7398798;19;20291;-64
2023/05/07 00:52:47;;;;;;;29.45;16.55;;;11.50;99.90;;;;;;7398880;19;19914;-64
2023/05/07 00:55:16;;;;;;;32.17;17.73;;;11.40;99.90;;;;;;7398732;19;19994;-63
2023/05/07 00:57:46;;;;;;;32.05;17.02;;;11.30;99.90;;;;;;7398835;19;19918;-64
2023/05/07 01:00:19;;;;;;;29.40;16.77;;;11.50;99.90;;;;;;7398549;19;19928;-63
2023/05/07 01:02:48;;;;;;;29.60;16.90;;;11.40;99.90;;;;;;7398269;19;19922;-64
2023/05/07 01:05:21;;;;;;;31.85;19.45;;;11.40;99.90;;;;;;7398216;19;19914;-64
2023/05/07 01:07:51;;;;;;;33.75;18.83;;;11.40;99.90;;;;;;7398419;19;19922;-64
2023/05/07 01:10:20;;;;;;;31.88;16.88;;;11.40;99.90;;;;;;7398053;19;19920;-64
2023/05/07 01:12:51;;;;;;;30.13;18.70;;;11.50;99.90;;;;;;7397429;19;19925;-64
2023/05/07 01:15:22;;;;;;;29.75;17.55;;;11.50;99.90;;;;;;7398943;19;19945;-64
2023/05/07 01:17:51;;;;;;;28.80;16.98;;;11.60;99.90;;;;;;7398129;19;19922;-64
2023/05/07 01:20:21;;;;;;;28.45;15.55;;;11.30;99.90;;;;;;7398704;19;19918;-64
2023/05/07 01:22:53;;;;;;;25.48;14.48;;;11.20;99.90;;;;;;7398517;19;19911;-64
2023/05/07 01:25:22;;;;;;;26.33;14.77;;;11.30;99.90;;;;;;7397766;19;19918;-64
2023/05/07 01:27:51;;;;;;;27.02;15.90;;;11.10;99.90;;;;;;7395968;19;19925;-64
2023/05/07 01:30:23;;;;;;;28.20;14.90;;;11.20;99.90;;;;;;7404814;19;20453;-65
2023/05/07 01:32:56;;;;;;;29.77;16.00;;;11.40;99.90;;;;;;7403851;19;19922;-64
2023/05/07 01:35:30;;;;;;;26.55;14.27;;;11.40;99.90;;;;;;7404968;19;19918;-64
2023/05/07 01:38:04;;;;;;;26.38;15.15;;;11.30;99.90;;;;;;7402712;19;19929;-64
2023/05/07 01:40:33;;;;;;;28.88;15.73;;;11.40;99.90;;;;;;7404367;19;19918;-64
2023/05/07 01:43:03;;;;;;;30.95;16.58;;;11.20;99.90;;;;;;7403717;19;20430;-65
2023/05/07 01:45:33;;;;;;;33.42;17.45;;;11.30;99.90;;;;;;7408416;19;19921;-65
2023/05/07 01:48:04;;;;;;;31.88;16.67;;;11.30;99.90;;;;;;7404326;19;19993;-64
2023/05/07 01:50:34;;;;;;;26.95;15.82;;;11.30;99.90;;;;;;7404023;19;19953;-65
2023/05/07 01:53:05;;;;;;;25.77;13.80;;;11.20;99.90;;;;;;7403606;19;19919;-64
2023/05/07 01:55:36;;;;;;;26.50;14.30;;;11.20;99.90;;;;;;7404022;19;20346;-64
2023/05/07 01:58:05;;;;;;;21.58;13.75;;;11.10;99.90;;;;;;7403904;19;19919;-64
2023/05/07 02:00:34;;;;;;;26.45;15.00;;;11.20;99.90;;;;;;7403788;19;20348;-64
2023/05/07 02:03:03;;;;;;;27.05;15.10;;;11.20;99.90;;;;;;7406772;19;19926;-65
2023/05/07 02:05:32;;;;;;;26.20;15.25;;;11.10;99.90;;;;;;7403787;19;19991;-64
2023/05/07 02:08:01;;;;;;;29.30;16.42;;;11.10;99.90;;;;;;7403704;19;19982;-64
2023/05/07 02:10:32;;;;;;;26.58;15.25;;;11.00;99.90;;;;;;7403654;19;19925;-65
2023/05/07 02:13:02;;;;;;;30.30;16.50;;;11.00;99.90;;;;;;7402804;19;19915;-64
2023/05/07 02:15:30;;;;;;;23.88;14.70;;;11.10;99.90;;;;;;7403401;19;20240;-64
2023/05/07 02:18:03;;;;;;;24.35;14.10;;;11.00;99.90;;;;;;7403415;19;19914;-64
2023/05/07 02:20:32;;;;;;;25.80;14.20;;;11.00;99.90;;;;;;7403679;19;19914;-65
2023/05/07 02:23:01;;;;;;;22.50;13.45;;;10.90;99.90;;;;;;7403647;19;19942;-64
2023/05/07 02:25:33;;;;;;;26.10;14.50;;;10.90;99.90;;;;;;7403562;19;19922;-64
2023/05/07 02:28:02;;;;;;;28.95;16.42;;;11.00;99.90;;;;;;7403316;19;19915;-64
2023/05/07 02:30:31;;;;;;;30.10;16.52;;;11.00;99.90;;;;;;7403064;19;19918;-64
2023/05/07 02:33:00;;;;;;;32.60;18.15;;;11.00;99.90;;;;;;7403186;19;19922;-64
2023/05/07 02:35:29;;;;;;;30.50;16.42;;;10.90;99.90;;;;;;7402978;19;19919;-64
2023/05/07 02:37:58;;;;;;;29.27;16.55;;;10.80;99.90;;;;;;7401260;19;19923;-64
2023/05/07 02:40:27;;;;;;;28.65;16.73;;;10.90;99.90;;;;;;7402730;19;20313;-64
2023/05/07 02:42:58;;;;;;;32.50;16.35;;;10.90;99.90;;;;;;7402014;19;19922;-64
2023/05/07 02:45:28;;;;;;;29.05;15.57;;;10.80;99.90;;;;;;7407178;19;19910;-64
2023/05/07 02:47:56;;;;;;;33.15;18.02;;;10.90;99.90;;;;;;7402462;19;19933;-64
2023/05/07 02:50:26;;;;;;;33.70;17.38;;;10.90;99.90;;;;;;7402437;19;20376;-64
2023/05/07 02:52:55;;;;;;;33.05;18.02;;;10.80;99.90;;;;;;7402715;19;19922;-64
2023/05/07 02:55:24;;;;;;;32.33;17.52;;;10.90;99.90;;;;;;7400717;19;20270;-65
2023/05/07 02:57:53;;;;;;;36.95;16.77;;;10.90;99.90;;;;;;7402294;19;19911;-65
2023/05/07 03:00:26;;;;;;;32.40;16.33;;;10.80;99.90;;;;;;7402389;19;19921;-65
2023/05/07 03:02:55;;;;;;;30.88;16.77;;;10.80;99.90;;;;;;7402304;19;19923;-65
2023/05/07 03:05:24;;;;;;;26.20;16.13;;;10.90;99.90;;;;;;7402108;19;20270;-64
2023/05/07 03:07:53;;;;;;;27.42;15.13;;;10.70;99.90;;;;;;7402208;19;19919;-65
2023/05/07 03:10:22;;;;;;;27.02;15.55;;;10.70;99.90;;;;;;7401620;19;20395;-65
2023/05/07 03:12:51;;;;;;;23.58;14.77;;;10.80;99.90;;;;;;7401338;19;19925;-65
2023/05/07 03:15:20;;;;;;;26.38;14.65;;;10.70;99.90;;;;;;7399730;19;19925;-65
2023/05/07 03:17:52;;;;;;;24.65;15.05;;;10.80;99.90;;;;;;7401750;19;19919;-64
2023/05/07 03:20:20;;;;;;;28.65;15.48;;;10.80;99.90;;;;;;7401324;19;19937;-64
2023/05/07 03:22:49;;;;;;;30.95;17.50;;;10.40;99.90;;;;;;7401483;19;19924;-64
2023/05/07 03:25:18;;;;;;;32.17;18.63;;;10.50;99.90;;;;;;7401558;19;20366;-65
2023/05/07 03:27:47;;;;;;;37.13;20.10;;;10.70;99.90;;;;;;7399839;19;19911;-65
2023/05/07 03:30:16;;;;;;;36.90;19.90;;;10.80;99.90;;;;;;7401906;19;19927;-65
2023/05/07 03:32:45;;;;;;;36.95;20.45;;;10.50;99.90;;;;;;7400987;19;20094;-65
2023/05/07 03:35:17;;;;;;;38.85;20.63;;;10.60;99.90;;;;;;7399649;19;19922;-65
2023/05/07 03:37:46;;;;;;;32.17;18.77;;;10.50;99.90;;;;;;7400100;19;19925;-65
2023/05/07 03:40:15;;;;;;;33.85;19.33;;;10.60;99.90;;;;;;7401078;19;19914;-65
2023/05/07 03:42:44;;;;;;;35.53;18.90;;;10.40;99.90;;;;;;7400513;19;19921;-65
2023/05/07 03:45:13;;;;;;;31.35;17.77;;;10.50;99.90;;;;;;7404987;19;19918;-65
2023/05/07 03:47:42;;;;;;;34.10;18.45;;;10.50;99.90;;;;;;7400675;19;19922;-65
2023/05/07 03:50:12;;;;;;;34.08;19.65;;;10.50;99.90;;;;;;7400789;19;19922;-65
2023/05/07 03:52:44;;;;;;;37.20;21.70;;;10.40;99.90;;;;;;7399220;19;20351;-65
2023/05/07 03:55:13;;;;;;;;;;;10.60;99.90;;;;;;7402159;19;19918;-64
2023/05/07 03:57:42;;;;;;;39.05;21.70;;;10.60;99.90;;;;;;7400353;19;19923;-65
2023/05/07 04:00:12;;;;;;;41.08;22.65;;;10.30;99.90;;;;;;7400752;19;19923;-65
2023/05/07 04:02:40;;;;;;;40.67;22.40;;;10.30;99.90;;;;;;7400345;19;20351;-64
2023/05/07 04:05:10;;;;;;;45.72;22.30;;;10.60;99.90;;;;;;7400845;19;19922;-65
2023/05/07 04:07:39;;;;;;;42.05;22.95;;;10.30;99.90;;;;;;7400258;19;19938;-65
2023/05/07 04:10:13;;;;;;;43.75;23.85;;;10.30;99.90;;;;;;7400429;19;19926;-65
2023/05/07 04:12:42;;;;;;;39.60;22.23;;;10.40;99.90;;;;;;7399700;19;20403;-65
2023/05/07 04:15:11;;;;;;;44.72;22.77;;;10.40;99.90;;;;;;7399337;19;19919;-65
2023/05/07 04:17:41;;;;;;;41.30;23.45;;;10.50;99.90;;;;;;7400110;19;19915;-65
2023/05/07 04:20:13;;;;;;;41.85;22.88;;;10.50;99.90;;;;;;7399860;19;19918;-65
2023/05/07 04:22:41;;;;;;;41.45;23.83;;;10.60;99.90;;;;;;7399729;19;19932;-65
2023/05/07 04:25:13;;;;;;;42.85;22.92;;;10.40;99.90;;;;;;7399493;19;19918;-65
2023/05/07 04:27:42;;;;;;;39.55;21.67;;;10.50;99.90;;;;;;7398583;19;19919;-65
2023/05/07 04:30:12;;;;;;;42.90;22.20;;;10.50;99.90;;;;;;7399667;19;19923;-65
2023/05/07 04:32:41;;;;;;;39.30;23.58;;;10.40;99.90;;;;;;7399567;19;19915;-65
2023/05/07 04:35:10;;;;;;;41.10;21.83;;;10.50;99.90;;;;;;7398047;19;19910;-65
2023/05/07 04:37:39;;;;;;;36.38;20.23;;;10.30;99.90;;;;;;7398339;19;20268;-65
2023/05/07 04:40:10;;;;;;;36.95;21.25;;;10.30;99.90;;;;;;7399256;19;20265;-65
2023/05/07 04:42:41;;;;;;;38.67;21.30;;;10.20;99.90;;;;;;7399276;19;19926;-65
2023/05/07 04:45:12;;;;;;;34.25;19.20;;;10.30;99.90;;;;;;7404029;19;19914;-66
2023/05/07 04:47:41;;;;;;;37.72;20.83;;;10.30;99.90;;;;;;7398984;19;19928;-65
2023/05/07 04:50:11;;;;;;;35.35;19.75;;;10.20;99.90;;;;;;7398675;19;20312;-65
2023/05/07 04:52:40;;;;;;;37.25;20.08;;;10.30;99.90;;;;;;7399190;19;19923;-64
2023/05/07 04:55:11;;;;;;;33.40;20.83;;;10.40;99.90;;;;;;7397780;19;19931;-65
2023/05/07 04:57:42;;;;;;;33.13;19.00;;;10.30;99.90;;;;;;7398771;19;19918;-64
2023/05/07 05:00:14;;;;;;;31.90;18.88;;;10.20;99.90;;;;;;7398476;19;19925;-65
2023/05/07 05:02:43;;;;;;;32.08;19.00;;;10.20;99.90;;;;;;7401380;19;19923;-64
2023/05/07 05:05:12;;;;;;;33.03;17.55;;;10.20;99.90;;;;;;7405128;19;20332;-65
2023/05/07 05:07:41;;;;;;;31.73;19.00;;;10.20;99.90;;;;;;7405281;19;19938;-65
2023/05/07 05:10:10;;;;;;;36.13;18.15;;;10.10;99.90;;;;;;7405320;19;19978;-65
2023/05/07 05:12:41;;;;;;;30.88;17.30;;;10.30;99.90;;;;;;7405247;19;19922;-64
2023/05/07 05:15:12;;;;;;;29.65;17.80;;;10.20;99.90;;;;;;7403181;19;19928;-65
2023/05/07 05:17:41;;;;;;;26.45;15.68;;;10.20;99.90;;;;;;7405474;19;19919;-65
2023/05/07 05:20:11;;;;;;;26.95;15.98;;;10.20;99.90;;;;;;7404941;19;19921;-65
2023/05/07 05:22:40;;;;;;;26.33;15.20;;;10.20;99.90;;;;;;7405329;19;19982;-65
2023/05/07 05:25:10;;;;;;;26.42;14.52;;;10.10;99.90;;;;;;7404514;19;19915;-65
2023/05/07 05:27:41;;;;;;;26.02;14.20;;;10.10;99.90;;;;;;7402299;19;19927;-65
2023/05/07 05:30:11;;;;;;;23.45;13.57;;;10.00;99.90;;;;;;7404803;19;19950;-65
2023/05/07 05:32:40;;;;;;;24.42;14.27;;;10.10;99.90;;;;;;7404724;19;19934;-64
2023/05/07 05:35:10;;;;;;;22.65;13.63;;;10.10;99.90;;;;;;7403535;19;19922;-65
2023/05/07 05:37:39;;;;;;;27.75;15.55;;;10.00;99.90;;;;;;7403302;19;19960;-65
2023/05/07 05:40:09;;;;;;;26.52;16.27;;;10.10;99.90;;;;;;7405175;19;19927;-64
2023/05/07 05:42:38;;;;;;;27.38;14.32;;;10.10;99.90;;;;;;7404890;19;19970;-65
2023/05/07 05:45:11;;;;;;;24.95;15.13;;;10.10;99.90;;;;;;7404721;19;20285;-64
2023/05/07 05:47:41;;;;;;;28.75;15.75;;;10.10;99.90;;;;;;7404757;19;20248;-64
2023/05/07 05:50:10;;;;;;;29.17;17.15;;;10.10;99.90;;;;;;7404049;19;20264;-65
2023/05/07 05:52:40;;;;;;;31.65;16.08;;;10.20;99.90;;;;;;7404240;19;19982;-64
2023/05/07 05:55:11;;;;;;;29.42;16.88;;;10.20;99.90;;;;;;7402687;19;20340;-65
2023/05/07 05:57:40;;;;;;;25.98;16.17;;;10.20;99.90;;;;;;7404057;19;19921;-64
2023/05/07 06:00:13;;;;;;;29.17;16.50;;;10.40;99.90;;;;;;7403934;19;19914;-64
2023/05/07 06:02:42;;;;;;;28.63;16.15;;;10.30;99.90;;;;;;7403712;19;19911;-64
2023/05/07 06:05:11;;;;;;;26.02;15.43;;;10.20;99.90;;;;;;7403912;19;20387;-64
2023/05/07 06:07:40;;;;;;;25.75;15.95;;;10.40;99.90;;;;;;7403878;19;19923;-64
2023/05/07 06:10:10;;;;;;;31.95;15.55;;;10.40;99.90;;;;;;7403604;19;19911;-64
2023/05/07 06:12:39;;;;;;;26.30;15.93;;;10.50;99.90;;;;;;7404614;19;20240;-66
2023/05/07 06:15:12;;;;;;;27.13;16.73;;;10.40;99.90;;;;;;7401328;19;19922;-64
2023/05/07 06:17:41;;;;;;;29.85;17.95;;;10.40;99.90;;;;;;7404333;19;19921;-64
2023/05/07 06:20:11;;;;;;;30.70;18.38;;;10.50;99.90;;;;;;7403850;19;19933;-64
2023/05/07 06:22:40;;;;;;;30.02;18.38;;;10.40;99.90;;;;;;7403928;19;19919;-64
2023/05/07 06:25:10;;;;;;;33.92;18.98;;;10.50;99.90;;;;;;7403963;19;20409;-64
2023/05/07 06:27:39;;;;;;;34.45;19.50;;;10.40;99.90;;;;;;7402597;19;19919;-64
2023/05/07 06:30:12;;;;;;;38.28;21.02;;;10.50;99.90;;;;;;7402955;19;20344;-64
2023/05/07 06:32:42;;;;;;;38.45;21.10;;;10.50;99.90;;;;;;7401204;19;19921;-64
2023/05/07 06:35:12;;;;;;;34.30;20.40;;;10.60;99.90;;;;;;7403453;19;19918;-64
2023/05/07 06:37:42;;;;;;;33.55;18.00;;;10.50;99.90;;;;;;7401897;19;20255;-64
2023/05/07 06:40:12;;;;;;;28.52;17.00;;;10.60;99.90;;;;;;7403032;19;19963;-64
2023/05/07 06:42:41;;;;;;;33.95;18.45;;;10.50;99.90;;;;;;7404880;19;20344;-64
2023/05/07 06:45:14;;;;;;;31.52;17.77;;;10.40;99.90;;;;;;7403279;19;20251;-63
2023/05/07 06:47:43;;;;;;;30.13;17.50;;;10.50;99.90;;;;;;7403167;19;19923;-64
2023/05/07 06:50:12;;;;;;;29.90;16.38;;;10.40;99.90;;;;;;7402636;19;19942;-64
2023/05/07 06:52:41;;;;;;;29.05;16.33;;;10.50;99.90;;;;;;7403149;19;19986;-64
2023/05/07 06:55:11;;;;;;;28.35;17.58;;;10.40;99.90;;;;;;7401530;19;19918;-63
2023/05/07 06:57:40;;;;;;;26.75;16.15;;;10.50;99.90;;;;;;7402606;19;20286;-63
2023/05/07 07:00:13;;;;;;;29.02;17.40;;;10.60;99.90;;;;;;7402386;19;20332;-63
2023/05/07 07:02:43;;;;;;;31.35;17.40;;;10.60;99.90;;;;;;7402410;19;19915;-64
2023/05/07 07:05:12;;;;;;;33.30;19.25;;;10.60;99.90;;;;;;7402267;19;19942;-64
2023/05/07 07:07:41;;;;;;;35.58;19.00;;;10.50;99.90;;;;;;7401842;19;19925;-64
2023/05/07 07:10:11;;;;;;;35.42;19.23;;;10.50;99.90;;;;;;7401983;19;19922;-64
2023/05/07 07:12:40;;;;;;;31.00;18.70;;;10.50;99.90;;;;;;7401938;19;19918;-64
2023/05/07 07:15:10;;;;;;;34.83;20.27;;;10.60;99.90;;;;;;7401256;19;19918;-64
2023/05/07 07:17:41;;;;;;;32.88;20.02;;;10.70;99.90;;;;;;7401170;19;19989;-64
2023/05/07 07:20:11;;;;;;;34.28;19.17;;;10.60;99.90;;;;;;7401858;19;19919;-64
2023/05/07 07:22:40;;;;;;;34.72;19.95;;;10.70;99.90;;;;;;7401582;19;20355;-64
2023/05/07 07:25:10;;;;;;;31.70;17.88;;;10.70;99.90;;;;;;7400919;19;19941;-64
2023/05/07 07:27:40;;;;;;;33.10;19.45;;;10.70;99.90;;;;;;7398875;19;19931;-64
2023/05/07 07:30:10;;;;;;;32.83;17.73;;;10.80;99.90;;;;;;7401308;19;19911;-64
2023/05/07 07:32:42;;;;;;;33.50;18.27;;;10.80;99.90;;;;;;7401679;19;19911;-64
2023/05/07 07:35:12;;;;;;;31.75;18.45;;;10.80;99.90;;;;;;7400907;19;19915;-64
2023/05/07 07:37:40;;;;;;;31.92;18.38;;;10.80;99.90;;;;;;7400080;19;19922;-64
2023/05/07 07:40:11;;;;;;;34.65;18.83;;;10.90;99.90;;;;;;7401871;19;20332;-64
2023/05/07 07:42:39;;;;;;;32.53;17.95;;;11.00;99.90;;;;;;7404395;19;20749;-64
2023/05/07 07:45:10;;;;;;;30.63;18.23;;;10.90;99.90;;;;;;7400779;19;19926;-64
2023/05/07 07:47:42;;;;;;;28.73;17.13;;;10.90;99.90;;;;;;7400775;19;20271;-64
2023/05/07 07:50:12;;;;;;;32.67;18.75;;;11.00;99.90;;;;;;7400763;19;19910;-64
2023/05/07 07:52:41;;;;;;;30.10;17.80;;;10.90;99.90;;;;;;7400732;19;19937;-64
2023/05/07 07:55:12;;;;;;;27.80;16.02;;;11.00;99.90;;;;;;7400366;19;20258;-64
2023/05/07 07:57:40;;;;;;;25.00;15.57;;;11.00;99.90;;;;;;7400170;19;20344;-64
2023/05/07 08:00:11;;;;;;;23.48;14.70;;;10.90;99.90;;;;;;7401013;19;19923;-64
2023/05/07 08:02:43;;;;;;;24.65;14.50;;;11.10;99.90;;;;;;7400469;19;19919;-65
2023/05/07 08:05:12;;;;;;;19.02;12.57;;;11.10;99.90;;;;;;7400358;19;20362;-64
2023/05/07 08:07:42;;;;;;;20.95;12.65;;;11.20;99.90;;;;;;7400164;19;19925;-64
2023/05/07 08:10:12;;;;;;;19.70;12.02;;;11.20;99.90;;;;;;7400416;19;19922;-64
2023/05/07 08:12:41;;;;;;;21.08;12.88;;;11.30;99.90;;;;;;7400448;19;19915;-65
2023/05/07 08:15:11;;;;;;;19.75;11.93;;;11.40;99.90;;;;;;7400034;19;19974;-65
2023/05/07 08:17:42;;;;;;;23.52;14.25;;;11.30;99.90;;;;;;7400712;19;19914;-65
2023/05/07 08:20:12;;;;;;;23.42;13.05;;;11.50;99.90;;;;;;7399793;19;19922;-66
2023/05/07 08:22:41;;;;;;;22.50;14.38;;;11.50;99.90;;;;;;7399478;19;20393;-64
2023/05/07 08:25:11;;;;;;;28.10;16.05;;;11.70;99.90;;;;;;7399799;19;20283;-64
2023/05/07 08:27:40;;;;;;;28.08;16.90;;;11.80;99.90;;;;;;7398398;19;20289;-64
2023/05/07 08:30:11;;;;;;;31.48;17.38;;;11.80;99.90;;;;;;7399876;19;19918;-64
2023/05/07 08:32:42;;;;;;;27.42;16.67;;;11.60;99.90;;;;;;7399126;19;19914;-64
2023/05/07 08:35:12;;;;;;;23.98;15.35;;;11.70;99.90;;;;;;7399264;19;19926;-65
2023/05/07 08:37:41;;;;;;;24.30;15.50;;;11.70;99.90;;;;;;7397322;19;20386;-64
2023/05/07 08:40:10;;;;;;;22.13;13.95;;;11.90;99.90;;;;;;7399678;19;20259;-64
2023/05/07 08:42:40;;;;;;;23.25;13.73;;;11.90;99.90;;;;;;7402054;19;19915;-64
2023/05/07 08:45:12;;;;;;;25.10;13.40;;;11.90;99.90;;;;;;7399006;19;19918;-64
2023/05/07 08:47:49;;;;;;;21.60;12.82;;;11.90;99.90;;;;;;7398912;19;19939;-66
2023/05/07 08:50:18;;;;;;;18.65;11.38;;;11.90;99.90;;;;;;7398726;19;19950;-64
2023/05/07 08:52:47;;;;;;;17.52;11.27;;;11.90;99.90;;;;;;7398984;19;19990;-64
2023/05/07 08:55:17;;;;;;;15.57;9.95;;;11.90;99.90;;;;;;7398749;19;19970;-64
2023/05/07 08:57:47;;;;;;;15.80;10.27;;;12.00;99.90;;;;;;7398840;19;20352;-64
2023/05/07 09:00:17;;;;;;;18.02;10.05;;;12.00;99.90;;;;;;7398288;19;20419;-64
2023/05/07 09:02:49;;;;;;;17.55;9.85;;;12.00;99.90;;;;;;7398726;19;19930;-64
2023/05/07 09:05:18;;;;;;;17.17;9.95;;;12.10;99.90;;;;;;7398535;19;19910;-64
2023/05/07 09:07:47;;;;;;;12.60;7.78;;;12.10;99.90;;;;;;7398493;19;19915;-64
2023/05/07 09:10:16;;;;;;;14.82;8.85;;;12.00;99.90;;;;;;7398085;19;19914;-64
2023/05/07 09:12:45;;;;;;;14.82;9.02;;;12.10;99.90;;;;;;7397814;19;19929;-64
2023/05/07 09:15:14;;;;;;;12.10;8.13;;;12.30;99.90;;;;;;7398448;19;20299;-64
2023/05/07 09:17:43;;;;;;;13.10;8.48;;;12.20;99.90;;;;;;7398044;19;20340;-64
2023/05/07 09:20:16;;;;;;;12.02;7.90;;;12.50;99.90;;;;;;7398045;19;19917;-64
2023/05/07 09:22:45;;;;;;;12.95;8.57;;;12.50;99.90;;;;;;7398312;19;20271;-64
2023/05/07 09:25:14;;;;;;;12.95;8.07;;;12.60;99.90;;;;;;7397820;19;19918;-64
2023/05/07 09:27:44;;;;;;;13.68;8.27;;;12.70;99.90;;;;;;7397873;19;19927;-64
2023/05/07 09:30:14;;;;;;;13.07;8.43;;;12.70;99.90;;;;;;7398177;19;20269;-64
2023/05/07 09:32:43;;;;;;;12.15;8.25;;;12.70;99.90;;;;;;7397883;19;19925;-64
2023/05/07 09:35:21;;;;;;;11.65;8.15;;;12.80;99.90;;;;;;7397737;19;19923;-64
2023/05/07 09:37:50;;;;;;;12.90;8.15;;;13.00;99.90;;;;;;7396412;19;19922;-64
2023/05/07 09:40:26;;;;;;;12.93;7.38;;;13.10;99.90;;;;;;7397498;19;19918;-64
2023/05/07 09:42:55;;;;;;;11.55;7.75;;;13.30;99.90;;;;;;7400746;19;19919;-64
2023/05/07 09:45:28;;;;;;;11.38;7.78;;;13.30;99.90;;;;;;7397473;19;19914;-64
2023/05/07 09:47:58;;;;;;;9.65;6.97;;;13.20;99.90;;;;;;7397165;19;20328;-64
2023/05/07 09:50:32;;;;;;;13.45;7.60;;;13.20;99.90;;;;;;7402372;19;19925;-64
2023/05/07 09:53:02;;;;;;;12.35;7.78;;;13.20;99.90;;;;;;7404061;19;19918;-64
2023/05/07 09:55:32;;;;;;;12.52;7.10;;;13.30;99.90;;;;;;7404213;19;19974;-64
2023/05/07 09:58:02;;;;;;;10.85;7.53;;;13.30;99.90;;;;;;7403555;19;19995;-64
2023/05/07 10:00:32;;;;;;;12.25;8.25;;;13.30;99.90;;;;;;7403545;19;19915;-64
2023/05/07 10:03:04;;;;;;;12.45;7.70;;;13.30;99.90;;;;;;7403508;19;19914;-64
2023/05/07 10:05:36;;;;;;;11.70;7.32;;;13.40;99.90;;;;;;7403961;19;19938;-64
2023/05/07 10:08:05;;;;;;;11.23;7.05;;;13.30;99.90;;;;;;7403717;19;19915;-64
2023/05/07 10:10:36;;;;;;;13.82;8.45;;;13.50;99.90;;;;;;7403108;19;19980;-64
2023/05/07 10:13:09;;;;;;;13.25;7.68;;;13.70;99.90;;;;;;7402696;19;19925;-64
2023/05/07 10:15:39;;;;;;;12.23;8.48;;;13.60;99.90;;;;;;7403177;19;20252;-64
2023/05/07 10:18:10;;;;;;;10.88;7.70;;;13.70;99.90;;;;;;7403276;19;20378;-64
2023/05/07 10:20:42;;;;;;;10.13;7.57;;;13.70;99.90;;;;;;7402991;19;19919;-64
2023/05/07 10:23:15;;;;;;;13.10;7.50;;;13.80;99.90;;;;;;7403697;19;19918;-64
2023/05/07 10:25:44;;;;;;;12.40;7.72;;;14.10;99.90;;;;;;7403024;19;20232;-64
2023/05/07 10:28:14;;;;;;;11.38;8.48;;;14.10;99.90;;;;;;7402216;19;19937;-64
2023/05/07 10:30:55;;;;;;;12.63;7.85;;;14.20;99.90;;;;;;7403031;19;19919;-64
2023/05/07 10:33:30;;;;;;;13.80;8.25;;;14.40;99.90;;;;;;7403376;19;20282;-64
2023/05/07 10:36:04;;;;;;;12.13;8.77;;;14.40;99.90;;;;;;7402315;19;20373;-64
2023/05/07 10:38:33;;;;;;;12.73;8.32;;;14.40;99.90;;;;;;7401133;19;20257;-64
2023/05/07 10:41:04;;;;;;;12.38;8.45;;;14.20;99.90;;;;;;7402989;19;19919;-64
2023/05/07 10:43:43;;;;;;;11.85;8.50;;;14.30;99.90;;;;;;7402279;19;20351;-64
2023/05/07 10:46:13;;;;;;;10.40;7.97;;;14.20;99.90;;;;;;7402323;19;19914;-64
2023/05/07 10:49:11;;;;;;;10.85;7.80;;;14.30;99.90;;;;;;7402796;19;19919;-64
2023/05/07 10:51:45;;;;;;;10.95;7.93;;;14.20;99.90;;;;;;7402702;19;19919;-64
2023/05/07 10:54:24;;;;;;;10.73;7.45;;;14.10;99.90;;;;;;7402498;19;20309;-64
2023/05/07 10:56:54;;;;;;;11.40;8.20;;;14.20;99.90;;;;;;7401192;19;19926;-65
2023/05/07 10:59:41;;;;;;;11.50;8.18;;;14.20;99.90;;;;;;7402136;19;19922;-64
2023/05/07 11:02:11;;;;;;;12.82;8.57;;;14.40;99.90;;;;;;7402580;19;19919;-65
2023/05/07 11:04:41;;;;;;;15.15;10.95;;;14.50;99.90;;;;;;7402103;19;19922;-64
2023/05/07 11:07:28;;;;;;;15.70;10.95;;;14.60;99.90;;;;;;7401416;19;20015;-64
2023/05/07 11:10:07;;;;;;;15.68;11.50;;;14.70;99.90;;;;;;7405886;19;19960;-64
2023/05/07 11:12:52;;;;;;;15.43;11.93;;;14.80;99.90;;;;;;7401863;19;19963;-64
2023/05/07 11:15:41;;;;;;;14.15;11.50;;;15.10;99.90;;;;;;7401729;19;19942;-64
2023/05/07 11:18:10;;;;;;;14.93;12.00;;;14.90;99.90;;;;;;7400198;19;20196;-64
2023/05/07 11:20:50;;;;;;;16.50;11.63;;;15.10;99.90;;;;;;7401449;19;19917;-64
2023/05/07 11:23:49;;;;;;;13.07;10.25;;;15.30;99.90;;;;;;7401483;19;19918;-64
2023/05/07 11:26:21;;;;;;;15.32;10.60;;;15.30;99.90;;;;;;7401916;19;19939;-65
2023/05/07 11:28:50;;;;;;;13.68;10.73;;;15.30;99.90;;;;;;7400628;19;19922;-64
2023/05/07 11:31:25;;;;;;;13.70;10.50;;;15.20;99.90;;;;;;7400502;19;19925;-64
2023/05/07 11:33:55;;;;;;;15.50;10.95;;;15.50;99.90;;;;;;7400192;19;20328;-64
2023/05/07 11:36:25;;;;;;;12.30;10.00;;;15.60;99.90;;;;;;7399559;19;19919;-64
2023/05/07 11:38:55;;;;;;;12.57;9.68;;;15.60;99.90;;;;;;7398337;19;19914;-64
2023/05/07 11:41:36;;;;;;;12.43;8.82;;;15.60;99.90;;;;;;7403474;19;19911;-64
2023/05/07 11:44:05;;;;;;;11.65;8.73;;;15.70;99.90;;;;;;7400155;19;19915;-64
2023/05/07 11:46:36;;;;;;;10.95;8.25;;;15.90;99.90;;;;;;7401509;19;19915;-64
2023/05/07 11:49:05;;;;;;;11.90;9.00;;;15.80;99.90;;;;;;7401211;19;19915;-64
2023/05/07 11:51:34;;;;;;;10.95;8.43;;;15.90;99.90;;;;;;7401111;19;19981;-64
2023/05/07 11:54:02;;;;;;;9.48;7.57;;;15.90;99.90;;;;;;7401208;19;19919;-64
2023/05/07 11:56:37;;;;;;;10.95;8.60;;;15.90;99.90;;;;;;7400285;19;20010;-64
2023/05/07 11:59:08;;;;;;;10.65;8.07;;;16.00;99.90;;;;;;7400404;19;19914;-64
2023/05/07 12:01:38;;;;;;;13.77;8.57;;;16.20;99.90;;;;;;7400350;19;19914;-64
2023/05/07 12:04:08;;;;;;;10.70;8.10;;;16.20;99.90;;;;;;7400873;19;19925;-64
2023/05/07 12:06:40;;;;;;;12.52;7.80;;;16.40;99.90;;;;;;7400262;19;20360;-64
2023/05/07 12:09:11;;;;;;;11.35;8.05;;;16.60;99.90;;;;;;7400489;19;20406;-65
2023/05/07 12:11:42;;;;;;;11.55;8.20;;;16.50;99.90;;;;;;7399119;19;19919;-64
2023/05/07 12:14:11;;;;;;;;;;;16.80;99.90;;;;;;7402404;19;20279;-65
2023/05/07 12:16:42;;;;;;;9.50;7.38;;;17.00;99.90;;;;;;7399937;19;19978;-64
2023/05/07 12:19:12;;;;;;;8.93;7.50;;;17.30;99.90;;;;;;7399889;19;19919;-64
2023/05/07 12:21:41;;;;;;;10.13;7.57;;;17.50;99.90;;;;;;7399956;19;20465;-64
2023/05/07 12:24:11;;;;;;;9.80;7.38;;;17.60;99.90;;;;;;7399741;19;19919;-64
2023/05/07 12:26:43;;;;;;;10.82;8.05;;;17.60;99.90;;;;;;7400621;19;19922;-64
2023/05/07 12:29:12;;;;;;;9.18;7.22;;;17.80;99.90;;;;;;7398234;19;19930;-65
2023/05/07 12:31:43;;;;;;;10.23;7.55;;;17.80;99.90;;;;;;7399331;19;20368;-64
2023/05/07 12:34:14;;;;;;;9.43;7.63;;;17.90;99.90;;;;;;7399432;19;19915;-64
2023/05/07 12:36:43;;;;;;;10.75;7.22;;;17.90;99.90;;;;;;7398623;19;19925;-65
2023/05/07 12:39:12;;;;;;;9.50;7.50;;;18.20;99.90;;;;;;7399311;19;19986;-64
2023/05/07 12:42:00;;;;;;;9.20;7.40;;;18.30;99.90;;;;;;7402619;19;19923;-64
2023/05/07 12:44:32;;;;;;;8.90;7.22;;;18.40;99.90;;;;;;7398670;19;19910;-64
2023/05/07 12:47:04;;;;;;;9.38;7.65;;;18.70;99.90;;;;;;7398983;19;20454;-65